Time;durP1;ratioP1;P1;durP2;ratioP2;P2;SDS_P1;SDS_P2;PMS_P1;PMS_P2;Temp;Humidity;BMP_temperature;BMP_pressure;BME280_temperature;BME280_humidity;BME280_pressure;Samples;Min_cycle;Max_cycle;Signal;HPM_P1;HPM_P2
2022/06/21 00:04:42;;;;;;;1;2.2;;;;;;;15.5;100;98020;;;;
2022/06/21 00:14:42;;;;;;;1;2.2;;;;;;;15.5;100;98030;;;;
2022/06/21 00:25:42;;;;;;;1;2.2;;;;;;;15.1;100;98040;;;;
2022/06/21 00:35:42;;;;;;;1.5;3.5;;;;;;;14.9;100;98040;;;;
2022/06/21 00:45:42;;;;;;;1.5;3.5;;;;;;;14.7;100;98040;;;;
2022/06/21 00:56:42;;;;;;;1.5;3.5;;;;;;;14.7;100;98050;;;;
2022/06/21 01:07:42;;;;;;;1.5;3.6;;;;;;;14.3;100;98050;;;;
2022/06/21 01:17:42;;;;;;;1.5;3.6;;;;;;;14.3;100;98040;;;;
2022/06/21 01:27:42;;;;;;;1.5;3.6;;;;;;;14.2;100;98040;;;;
2022/06/21 01:38:42;;;;;;;1.8;4;;;;;;;14;100;98030;;;;
2022/06/21 01:49:42;;;;;;;1.8;4;;;;;;;14;100;98040;;;;
2022/06/21 02:00:42;;;;;;;1.6;3.8;;;;;;;14.1;100;98040;;;;
2022/06/21 02:11:42;;;;;;;1.6;3.8;;;;;;;14;100;98050;;;;
2022/06/21 02:22:42;;;;;;;1.6;3.8;;;;;;;14.1;100;98060;;;;
2022/06/21 02:32:42;;;;;;;2.4;4.3;;;;;;;13.9;100;98080;;;;
2022/06/21 02:43:42;;;;;;;2.4;4.3;;;;;;;13.9;100;98070;;;;
2022/06/21 02:54:42;;;;;;;2.4;4.3;;;;;;;13.7;100;98080;;;;
2022/06/21 03:04:42;;;;;;;2.3;4.2;;;;;;;13.7;100;98090;;;;
2022/06/21 03:15:42;;;;;;;2.3;4.2;;;;;;;13.8;100;98090;;;;
2022/06/21 03:25:42;;;;;;;2.3;4.2;;;;;;;13.9;100;98100;;;;
2022/06/21 03:36:42;;;;;;;2.4;4.8;;;;;;;14;100;98110;;;;
2022/06/21 03:46:42;;;;;;;2.4;4.8;;;;;;;13.9;100;98110;;;;
2022/06/21 03:57:42;;;;;;;2.4;4.8;;;;;;;13.8;100;98120;;;;
2022/06/21 04:07:42;;;;;;;2.7;5.4;;;;;;;13.8;100;98130;;;;
2022/06/21 04:18:42;;;;;;;2.7;5.4;;;;;;;13.8;100;98120;;;;
2022/06/21 04:28:42;;;;;;;2.7;5.4;;;;;;;13.9;100;98110;;;;
2022/06/21 04:38:42;;;;;;;2.8;6;;;;;;;14.2;100;98110;;;;
2022/06/21 04:49:42;;;;;;;2.8;6;;;;;;;14.7;100;98110;;;;
2022/06/21 05:00:42;;;;;;;2.9;5.6;;;;;;;14.6;100;98120;;;;
2022/06/21 05:11:42;;;;;;;2.9;5.6;;;;;;;14.3;100;98140;;;;
2022/06/21 05:21:42;;;;;;;2.9;5.6;;;;;;;14.9;100;98140;;;;
2022/06/21 05:31:42;;;;;;;4.8;10.6;;;;;;;15.3;100;98140;;;;
2022/06/21 05:42:42;;;;;;;4.8;10.6;;;;;;;15.3;100;98150;;;;
2022/06/21 05:53:42;;;;;;;4.8;10.6;;;;;;;15;100;98150;;;;
2022/06/21 06:03:42;;;;;;;4.8;12.6;;;;;;;15;100;98150;;;;
2022/06/21 06:14:42;;;;;;;4.8;12.6;;;;;;;15.4;100;98150;;;;
2022/06/21 06:24:42;;;;;;;4.8;12.6;;;;;;;15;100;98150;;;;
2022/06/21 06:35:43;;;;;;;3.8;10.1;;;;;;;15.4;100;98150;;;;
2022/06/21 06:46:42;;;;;;;3.8;10.1;;;;;;;15.7;100;98150;;;;
2022/06/21 06:56:42;;;;;;;3.8;10.1;;;;;;;15.8;100;98140;;;;
2022/06/21 07:07:42;;;;;;;3.4;7.2;;;;;;;15.9;100;98140;;;;
2022/06/21 07:17:42;;;;;;;3.4;7.2;;;;;;;15.9;100;98140;;;;
2022/06/21 07:28:42;;;;;;;3.4;7.2;;;;;;;15.9;100;98140;;;;
2022/06/21 07:38:42;;;;;;;2.9;6.5;;;;;;;15.8;100;98160;;;;
2022/06/21 07:49:42;;;;;;;2.9;6.5;;;;;;;16.3;100;98170;;;;
2022/06/21 08:11:42;;;;;;;1.8;4.1;;;;;;;16.3;100;98170;;;;
2022/06/21 08:21:42;;;;;;;1.8;4.1;;;;;;;16.1;100;98180;;;;
2022/06/21 08:32:42;;;;;;;1.4;4.4;;;;;;;16.3;100;98180;;;;
2022/06/21 08:43:42;;;;;;;1.4;4.4;;;;;;;16.5;100;98170;;;;
2022/06/21 08:54:42;;;;;;;1.4;4.4;;;;;;;17.2;100;98190;;;;
2022/06/21 09:04:42;;;;;;;1.2;3.7;;;;;;;17.3;100;98210;;;;
2022/06/21 09:14:42;;;;;;;1.2;3.7;;;;;;;17.2;100;98210;;;;
2022/06/21 09:25:42;;;;;;;1.2;3.7;;;;;;;17.5;100;98210;;;;
2022/06/21 09:35:42;;;;;;;1.9;4.7;;;;;;;17.7;100;98210;;;;
2022/06/21 09:46:42;;;;;;;1.9;4.7;;;;;;;16.9;100;98220;;;;
2022/06/21 09:57:42;;;;;;;1.9;4.7;;;;;;;16.7;100;98220;;;;
2022/06/21 10:07:44;;;;;;;1.5;4.3;;;;;;;17.3;100;98220;;;;
2022/06/21 10:17:42;;;;;;;1.5;4.3;;;;;;;17.6;100;98220;;;;
2022/06/21 10:27:42;;;;;;;1.5;4.3;;;;;;;17.7;100;98210;;;;
2022/06/21 10:37:42;;;;;;;1.4;6.4;;;;;;;17.6;100;98220;;;;
2022/06/21 10:48:42;;;;;;;1.4;6.4;;;;;;;17.6;100;98220;;;;
2022/06/21 10:58:42;;;;;;;1.4;6.4;;;;;;;17.7;100;98240;;;;
2022/06/21 11:08:42;;;;;;;1.4;3.9;;;;;;;17.4;100;98240;;;;
2022/06/21 11:18:42;;;;;;;1.4;3.9;;;;;;;16.8;100;98230;;;;
2022/06/21 11:28:42;;;;;;;1.4;3.9;;;;;;;16.6;100;98230;;;;
2022/06/21 11:39:42;;;;;;;1.4;4.9;;;;;;;17.9;100;98210;;;;
2022/06/21 11:49:47;;;;;;;1.4;4.9;;;;;;;18;100;98230;;;;
2022/06/21 11:59:42;;;;;;;1.2;3.1;;;;;;;18.3;100;98220;;;;
2022/06/21 12:10:42;;;;;;;1.2;3.1;;;;;;;17.1;100;98220;;;;
2022/06/21 12:20:42;;;;;;;1.2;3.1;;;;;;;17;100;98230;;;;
2022/06/21 12:31:43;;;;;;;1.2;3.1;;;;;;;17.7;100;98230;;;;
2022/06/21 12:42:42;;;;;;;1.2;3.1;;;;;;;17.4;100;98230;;;;
2022/06/21 12:53:47;;;;;;;1.2;3.1;;;;;;;17.4;100;98230;;;;
2022/06/21 13:04:42;;;;;;;1.6;4.5;;;;;;;18.7;100;98210;;;;
2022/06/21 13:15:42;;;;;;;1.6;4.5;;;;;;;18.7;100;98200;;;;
2022/06/21 13:26:42;;;;;;;1.6;4.5;;;;;;;18.8;100;98200;;;;
2022/06/21 13:37:42;;;;;;;1.5;4.9;;;;;;;19;100;98200;;;;
2022/06/21 13:47:42;;;;;;;1.5;4.9;;;;;;;19;100;98210;;;;
2022/06/21 13:58:42;;;;;;;1.5;4.9;;;;;;;19.3;100;98210;;;;
2022/06/21 14:08:42;;;;;;;1.5;3.8;;;;;;;20.1;96.4;98220;;;;
2022/06/21 14:18:45;;;;;;;1.5;3.8;;;;;;;19.4;97.3;98220;;;;
2022/06/21 14:29:42;;;;;;;1.7;7.9;;;;;;;19.2;99.7;98220;;;;
2022/06/21 14:40:42;;;;;;;1.7;7.9;;;;;;;19.2;99.3;98220;;;;
2022/06/21 14:50:43;;;;;;;1.7;7.9;;;;;;;19.2;99.3;98220;;;;
2022/06/21 15:00:42;;;;;;;1.3;3.6;;;;;;;19.3;100;98210;;;;
2022/06/21 15:11:59;;;;;;;1.3;3.6;;;;;;;21.2;93.4;98220;;;;
2022/06/21 15:21:42;;;;;;;1.3;3.6;;;;;;;21.8;88.6;98220;;;;
2022/06/21 15:32:42;;;;;;;1.3;3.4;;;;;;;20.1;94.3;98210;;;;
2022/06/21 15:42:42;;;;;;;1.3;3.4;;;;;;;21;90.1;98210;;;;
2022/06/21 15:52:42;;;;;;;1.3;3.4;;;;;;;20.4;93.6;98200;;;;
2022/06/21 16:03:42;;;;;;;1.2;3.1;;;;;;;19.8;95.6;98190;;;;
2022/06/21 16:13:42;;;;;;;1.2;3.1;;;;;;;20.3;94.8;98200;;;;
2022/06/21 16:24:42;;;;;;;1.2;3.1;;;;;;;20.9;92.9;98200;;;;
2022/06/21 16:35:43;;;;;;;1.5;3.3;;;;;;;19.3;99.5;98190;;;;
2022/06/21 16:46:42;;;;;;;1.5;3.3;;;;;;;20;97.4;98180;;;;
2022/06/21 16:56:42;;;;;;;1.5;3.3;;;;;;;19.4;100;98180;;;;
2022/06/21 17:07:42;;;;;;;1.7;4.4;;;;;;;21.8;89.5;98190;;;;
2022/06/21 17:17:42;;;;;;;1.7;4.4;;;;;;;19.9;95.6;98190;;;;
2022/06/21 17:28:42;;;;;;;1.7;4.4;;;;;;;20.3;96.8;98190;;;;
2022/06/21 17:38:42;;;;;;;2;4.6;;;;;;;21.6;90.6;98200;;;;
2022/06/21 17:48:42;;;;;;;2;4.6;;;;;;;20.3;96.3;98200;;;;
2022/06/21 17:59:43;;;;;;;2.2;7;;;;;;;20.8;94;98200;;;;
2022/06/21 18:09:42;;;;;;;2.2;7;;;;;;;19.6;98.3;98200;;;;
2022/06/21 18:19:43;;;;;;;2.2;7;;;;;;;18.4;100;98190;;;;
2022/06/21 18:30:42;;;;;;;1.8;5.9;;;;;;;17.5;100;98190;;;;
2022/06/21 18:40:42;;;;;;;1.8;5.9;;;;;;;17;100;98180;;;;
2022/06/21 18:51:42;;;;;;;1.8;5.9;;;;;;;16.6;100;98190;;;;
2022/06/21 19:01:43;;;;;;;2.3;5.5;;;;;;;16;100;98200;;;;
2022/06/21 19:12:42;;;;;;;2.3;5.5;;;;;;;15.6;100;98200;;;;
2022/06/21 19:22:42;;;;;;;2.3;5.5;;;;;;;15.1;100;98210;;;;
2022/06/21 19:32:44;;;;;;;2.8;8.2;;;;;;;14.9;100;98210;;;;
2022/06/21 19:42:42;;;;;;;2.8;8.2;;;;;;;14.6;100;98210;;;;
2022/06/21 19:52:43;;;;;;;2.8;8.2;;;;;;;14.3;100;98210;;;;
2022/06/21 20:03:42;;;;;;;3.3;7.3;;;;;;;14;100;98210;;;;
2022/06/21 20:13:42;;;;;;;3.3;7.3;;;;;;;13.9;100;98210;;;;
2022/06/21 20:24:42;;;;;;;3.3;7.3;;;;;;;13.8;100;98230;;;;
2022/06/21 20:34:42;;;;;;;2.5;4.6;;;;;;;13.6;100;98230;;;;
2022/06/21 20:45:42;;;;;;;2.5;4.6;;;;;;;13.5;100;98230;;;;
2022/06/21 20:56:42;;;;;;;2.5;4.6;;;;;;;13.3;100;98220;;;;
2022/06/21 21:06:44;;;;;;;2.9;5.9;;;;;;;13.1;100;98210;;;;
2022/06/21 21:17:45;;;;;;;2.9;5.9;;;;;;;12.9;100;98210;;;;
2022/06/21 21:27:42;;;;;;;2.9;5.9;;;;;;;12.7;100;98210;;;;
2022/06/21 21:37:42;;;;;;;3.3;6.2;;;;;;;12.5;100;98210;;;;
2022/06/21 21:47:42;;;;;;;3.3;6.2;;;;;;;12.2;100;98210;;;;
2022/06/21 21:57:42;;;;;;;3.3;6.2;;;;;;;12;100;98210;;;;
2022/06/21 22:07:42;;;;;;;3.8;6.5;;;;;;;11.9;100;98210;;;;
2022/06/21 22:17:42;;;;;;;3.8;6.5;;;;;;;11.8;100;98200;;;;
2022/06/21 22:27:42;;;;;;;3.8;6.5;;;;;;;11.9;100;98220;;;;
2022/06/21 22:38:42;;;;;;;3.6;8.7;;;;;;;11.9;100;98220;;;;
2022/06/21 22:48:42;;;;;;;3.6;8.7;;;;;;;11.8;100;98220;;;;
2022/06/21 22:58:42;;;;;;;3.6;8.7;;;;;;;11.7;100;98220;;;;
2022/06/21 23:08:42;;;;;;;4.4;7.9;;;;;;;11.7;100;98220;;;;
2022/06/21 23:18:42;;;;;;;4.4;7.9;;;;;;;11.7;100;98210;;;;
2022/06/21 23:29:42;;;;;;;4.3;7.7;;;;;;;11.6;100;98210;;;;
2022/06/21 23:39:42;;;;;;;4.3;7.7;;;;;;;11.5;100;98210;;;;
2022/06/21 23:50:44;;;;;;;4.3;7.7;;;;;;;11.4;100;98190;;;;
